This demonstration page uses our WeatherBlox Daily Observations layout. Learn more.

38.88101, -77.10428

Hourly Observations for June 21, 2019

Temp ( °F °C ) Dew Point ( °F °C ) Humidity (%) Winds ( mph kmh ) Pressure ( in mb ) Visibility ( mi km ) Precip ( " mm )
12:52 am 00:52 Mostly Cloudy 73 22.8 70 21.1 90 90 S 6 9 29.57 1001 10 16.0934 0 0
1:52 am 01:52 Mostly Cloudy 74 23.3 69 20.6 85 85 SW 6 9 29.56 1001 10 16.0934 0 0.0254
2:52 am 02:52 Mostly Cloudy 74 23.3 66 18.9 76 76 WSW 9 15 29.55 1001 10 16.0934 0 0
3:52 am 03:52 Partly Cloudy 72 22.2 67 19.4 84 84 SW 10 17 29.56 1001 10 16.0934 0 0
4:52 am 04:52 Partly Cloudy 71 21.7 66 18.9 84 84 S 7 11 29.56 1001 10 16.0934 0 0
5:52 am 05:52 Partly Cloudy 71 21.7 64 17.8 79 79 SSW 7 11 29.58 1002 10 16.0934 0 0
6:52 am 06:52 Partly Cloudy 75 23.9 61 16.1 62 62 WNW 16 26 29.6 1002 10 16.0934 0 0
7:52 am 07:52 Mostly Sunny 76 24.4 60 15.6 58 58 WNW 18 30 29.63 1003 10 16.0934 0 0
8:52 am 08:52 Mostly Cloudy 76 24.4 59 15 56 56 NW 26 43 29.67 1005 10 16.0934 0 0
9:52 am 09:52 Mostly Cloudy 77 25 61 16.1 58 58 NW 15 24 29.7 1006 10 16.0934 0 0
10:52 am 10:52 Mostly Cloudy 77 25 60 15.6 56 56 NW 17 28 29.74 1007 10 16.0934 0 0
11:52 am 11:52 Mostly Cloudy 79 26.1 59 15 50 50 NW 23 37 29.77 1008 10 16.0934 0 0
12:52 pm 12:52 Partly Cloudy 80 26.7 59 15 49 49 NW 17 28 29.78 1008 10 16.0934 0 0
1:52 pm 13:52 Mostly Cloudy 82 27.8 57 13.9 42 42 NW 16 26 29.8 1009 10 16.0934 0 0
2:52 pm 14:52 Partly Cloudy 83 28.3 56 13.3 40 40 NNW 21 33 29.8 1009 10 16.0934 0 0
3:52 pm 15:52 Partly Cloudy 83 28.3 56 13.3 40 40 NW 17 28 29.82 1010 10 16.0934 0 0
4:52 pm 16:52 Partly Cloudy 84 28.9 57 13.9 40 40 NW 15 24 29.84 1010 10 16.0934 0 0
5:52 pm 17:52 Mostly Sunny 83 28.3 55 12.8 38 38 NNW 21 33 29.83 1010 10 16.0934 0 0
6:52 pm 18:52 Mostly Sunny 83 28.3 54 12.2 37 37 NW 14 22 29.84 1011 10 16.0934 0 0
7:52 pm 19:52 Mostly Sunny 82 27.8 53 11.7 37 37 WNW 13 20 29.85 1011 10 16.0934 0 0
8:52 pm 20:52 Mostly Clear 80 26.7 50 10 35 35 NW 14 22 29.87 1012 10 16.0934 0 0
9:52 pm 21:52 Mostly Clear 77 25 51 10.6 40 40 NW 8 13 29.9 1013 10 16.0934 0 0
10:52 pm 22:52 Partly Cloudy 76 24.4 52 11.1 43 43 NW 7 11 29.93 1014 10 16.0934 0 0
11:52 pm 23:52 Partly Cloudy 74 23.3 52 11.1 46 46 NW 9 15 29.95 1014 10 16.0934 0 0

Powered by AerisWeather